Map

Track Data

SID SEASON NUMBER BASIN SUBBASIN NAME ISO_TIME NATURE LAT LON WMO_WIND WMO_PRES WMO_AGENCY TRACK_TYPE DIST2LAND LANDFALL IFLAG USA_AGENCY USA_ATCF_ID USA_LAT USA_LON USA_RECORD USA_STATUS USA_WIND USA_PRES USA_SSHS USA_R34_NE USA_R34_SE USA_R34_SW USA_R34_NW USA_R50_NE USA_R50_SE USA_R50_SW USA_R50_NW USA_R64_NE USA_R64_SE USA_R64_SW USA_R64_NW USA_POCI USA_ROCI USA_RMW USA_EYE TOKYO_LAT TOKYO_LON TOKYO_GRADE TOKYO_WIND TOKYO_PRES TOKYO_R50_DIR TOKYO_R50_LONG TOKYO_R50_SHORT TOKYO_R30_DIR TOKYO_R30_LONG TOKYO_R30_SHORT TOKYO_LAND CMA_LAT CMA_LON CMA_CAT CMA_WIND CMA_PRES HKO_LAT HKO_LON HKO_CAT HKO_WIND HKO_PRES NEWDELHI_LAT NEWDELHI_LON NEWDELHI_GRADE NEWDELHI_WIND NEWDELHI_PRES NEWDELHI_CI NEWDELHI_DP NEWDELHI_POCI REUNION_LAT REUNION_LON REUNION_TYPE REUNION_WIND REUNION_PRES REUNION_TNUM REUNION_CI REUNION_RMW REUNION_R34_NE REUNION_R34_SE REUNION_R34_SW REUNION_R34_NW REUNION_R50_NE REUNION_R50_SE REUNION_R50_SW REUNION_R50_NW REUNION_R64_NE REUNION_R64_SE REUNION_R64_SW REUNION_R64_NW BOM_LAT BOM_LON BOM_TYPE BOM_WIND BOM_PRES BOM_TNUM BOM_CI BOM_RMW BOM_R34_NE BOM_R34_SE BOM_R34_SW BOM_R34_NW BOM_R50_NE BOM_R50_SE BOM_R50_SW BOM_R50_NW BOM_R64_NE BOM_R64_SE BOM_R64_SW BOM_R64_NW BOM_ROCI BOM_POCI BOM_EYE BOM_POS_METHOD BOM_PRES_METHOD NADI_LAT NADI_LON NADI_CAT NADI_WIND NADI_PRES WELLINGTON_LAT WELLINGTON_LON WELLINGTON_WIND WELLINGTON_PRES DS824_LAT DS824_LON DS824_STAGE DS824_WIND DS824_PRES TD9636_LAT TD9636_LON TD9636_STAGE TD9636_WIND TD9636_PRES TD9635_LAT TD9635_LON TD9635_WIND TD9635_PRES TD9635_ROCI NEUMANN_LAT NEUMANN_LON NEUMANN_CLASS NEUMANN_WIND NEUMANN_PRES MLC_LAT MLC_LON MLC_CLASS MLC_WIND MLC_PRES USA_GUST BOM_GUST BOM_GUST_PER REUNION_GUST REUNION_GUST_PER USA_SEAHGT USA_SEARAD_NE USA_SEARAD_SE USA_SEARAD_SW USA_SEARAD_NW STORM_SPEED STORM_DIR
1860221N28276 1860 20 NA GM NOT_NAMED 1860-08-08 00:00:00 TS 28.1000 -84.0667 40 hurdat_atl main 119 119 O____________O hurdat_atl AL011860 27.9000 -84.1000 TS 40 0 28.5000 -84.0000 TD 30 3 252
1860221N28276 1860 20 NA GM NOT_NAMED 1860-08-08 03:00:00 TS 28.0584 -84.2101 main 129 128 P____________P AL011860 27.8376 -84.3151 TS 40 0 28.5000 -84.0000 TD 30 2 254
1860221N28276 1860 20 NA GM NOT_NAMED 1860-08-08 06:00:00 TS 28.0333 -84.3333 40 hurdat_atl main 137 137 O____________O hurdat_atl AL011860 27.8000 -84.5000 TS 40 0 28.5000 -84.0000 TD 30 2 263
1860221N28276 1860 20 NA GM NOT_NAMED 1860-08-08 09:00:00 TS 28.0333 -84.4283 main 147 147 P____________P AL011860 27.7999 -84.6424 TS 45 0 28.5000 -84.0000 TD 30 2 270
1860221N28276 1860 20 NA GM NOT_NAMED 1860-08-08 12:00:00 TS 28.0333 -84.5333 50 hurdat_atl main 157 157 O____________O hurdat_atl AL011860 27.8000 -84.8000 TS 50 0 28.5000 -84.0000 TD 30 2 263
1860221N28276 1860 20 NA GM NOT_NAMED 1860-08-08 15:00:00 TS 28.0075 -84.6800 main 176 176 P____________P AL011860 27.7575 -85.0275 TS 50 0 28.5075 -83.9850 TD 30 3 257
1860221N28276 1860 20 NA GM NOT_NAMED 1860-08-08 18:00:00 TS 27.9667 -84.8667 50 hurdat_atl main 189 189 O____________O hurdat_atl AL011860 27.7000 -85.3000 TS 50 0 28.5000 -84.0000 TD 30 4 257
1860221N28276 1860 20 NA GM NOT_NAMED 1860-08-08 21:00:00 TS 27.9217 -85.0975 main 200 200 P____________P AL011860 27.6501 -85.6075 TS 55 0 28.4650 -84.0775 TD 32 4 256
1860221N28276 1860 20 NA GM NOT_NAMED 1860-08-09 00:00:00 TS 27.8667 -85.3333 60 hurdat_atl main 200 200 O____________O hurdat_atl AL011860 27.6000 -85.9000 TS 60 0 28.4000 -84.2000 TS 35 4 252
1860221N28276 1860 20 NA GM NOT_NAMED 1860-08-09 03:00:00 TS 27.7974 -85.5192 main 212 212 P____________P AL011860 27.5424 -86.1075 TS 60 0 28.3075 -84.3425 TS 37 4 248
1860221N28276 1860 20 NA GM NOT_NAMED 1860-08-09 06:00:00 TS 27.7333 -85.7000 60 hurdat_atl main 225 225 O____________O hurdat_atl AL011860 27.5000 -86.3000 TS 60 0 28.2000 -84.5000 TS 40 3 254
1860221N28276 1860 20 NA GM NOT_NAMED 1860-08-09 09:00:00 TS 27.7024 -85.8966 main 228 228 P____________P AL011860 27.4999 -86.5274 TS 65 1 28.1074 -84.6349 TS 45 4 260
1860221N28276 1860 20 NA GM NOT_NAMED 1860-08-09 12:00:00 TS 27.6667 -86.1333 70 hurdat_atl main 233 233 O____________O hurdat_atl AL011860 27.5000 -86.8000 HU 70 1 28.0000 -84.8000 TS 50 5 256
1860221N28276 1860 20 NA GM NOT_NAMED 1860-08-09 15:00:00 TS 27.5834 -86.4451 main 253 253 P____________P AL011860 27.4501 -87.1501 HU 70 1 27.8500 -85.0351 TS 55 6 253
1860221N28276 1860 20 NA GM NOT_NAMED 1860-08-09 18:00:00 TS 27.5000 -86.7667 70 hurdat_atl main 279 264 O____________O hurdat_atl AL011860 27.4000 -87.5000 HU 70 1 27.7000 -85.3000 TS 60 5 256
1860221N28276 1860 20 NA GM NOT_NAMED 1860-08-09 21:00:00 TS 27.4516 -87.0266 main 264 250 P____________P AL011860 27.3924 -87.7649 HU 75 1 27.5700 -85.5501 TS 67 4 261
1860221N28276 1860 20 NA GM NOT_NAMED 1860-08-10 00:00:00 TS 27.4333 -87.2667 80 hurdat_atl main 250 237 O____________O hurdat_atl AL011860 27.4000 -88.0000 HU 80 1 27.5000 -85.8000 HU 75 4 268
1860221N28276 1860 20 NA GM NOT_NAMED 1860-08-10 03:00:00 TS 27.4375 -87.5167 main 237 210 P____________P AL011860 27.3925 -88.2501 HU 80 1 27.5275 -86.0499 HU 75 4 274
1860221N28276 1860 20 NA GM NOT_NAMED 1860-08-10 06:00:00 TS 27.4667 -87.7667 80 hurdat_atl main 210 199 O____________O hurdat_atl AL011860 27.4000 -88.5000 HU 80 1 27.6000 -86.3000 HU 75 4 280
1860221N28276 1860 20 NA GM NOT_NAMED 1860-08-10 09:00:00 TS 27.5141 -88.0142 main 199 174 P____________P AL011860 27.4500 -88.7499 HU 85 2 27.6424 -86.5426 HU 80 5 283
1860221N28276 1860 20 NA GM NOT_NAMED 1860-08-10 12:00:00 TS 27.5667 -88.2667 90 hurdat_atl main 174 166 O____________O hurdat_atl AL011860 27.5000 -89.0000 HU 90 2 27.7000 -86.8000 HU 85 5 280
1860221N28276 1860 20 NA GM NOT_NAMED 1860-08-10 15:00:00 TS 27.5975 -88.5359 main 166 159 P____________P AL011860 27.5000 -89.2576 HU 90 2 27.7925 -87.0925 HU 85 5 278
1860221N28276 1860 20 NA GM NOT_NAMED 1860-08-10 18:00:00 TS 27.6333 -88.8000 90 hurdat_atl main 159 145 O____________O hurdat_atl AL011860 27.5000 -89.5000 HU 90 2 27.9000 -87.4000 HU 85 5 281
1860221N28276 1860 20 NA GM NOT_NAMED 1860-08-10 21:00:00 TS 27.6825 -89.0459 main 145 134 P____________P AL011860 27.5275 -89.7225 HU 95 2 27.9924 -87.6926 HU 92 4 288
1860221N28276 1860 20 NA GM NOT_NAMED 1860-08-11 00:00:00 TS 27.7667 -89.2667 100 hurdat_atl main 135 126 O____________O hurdat_atl AL011860 27.6000 -89.9000 HU 100 3 28.1000 -88.0000 MH 100 4 300
1860221N28276 1860 20 NA GM NOT_NAMED 1860-08-11 03:00:00 TS 27.8966 -89.4600 main 128 111 P____________P AL011860 27.7199 -90.0151 HU 100 3 28.2500 -88.3499 MH 102 4 313
1860221N28276 1860 20 NA GM NOT_NAMED 1860-08-11 06:00:00 TS 28.0667 -89.6333 100 hurdat_atl main 111 104 O____________O hurdat_atl AL011860 27.9000 -90.1000 HU 100 3 28.4000 -88.7000 MH 105 5 316
1860221N28276 1860 20 NA GM NOT_NAMED 1860-08-11 09:00:00 TS 28.2417 -89.8374 main 104 67 P____________P AL011860 28.1275 -90.2298 HU 105 3 28.4701 -89.0526 MH 107 5 324
1860221N28276 1860 20 NA GM NOT_NAMED 1860-08-11 12:00:00 TS 28.4667 -89.9667 110 hurdat_atl main 67 34 O____________O hurdat_atl AL011860 28.4000 -90.3000 HU 110 3 28.6000 -89.3000 MH 110 5 349
1860221N28276 1860 20 NA GM NOT_NAMED 1860-08-11 15:00:00 TS 28.7690 -89.9476 main 38 22 P____________P AL011860 28.6935 -90.2376 HU 110 3 28.9199 -89.3675 MH 110 6 10
1860221N28276 1860 20 NA GM NOT_NAMED 1860-08-11 18:00:00 TS 29.1000 -89.8333 110 hurdat_atl main 22 0 O____________O hurdat_atl AL011860 29.0000 -90.1000 HU 110 3 29.3000 -89.3000 MH 110 7 18
1860221N28276 1860 20 NA GM NOT_NAMED 1860-08-11 20:00:00 TS 29.3008 -89.7484 110 hurdat_atl main 0 0 O____________P hurdat_atl AL011860 29.2000 -90.0000 L HU 110 3 29.5024 -89.2453 MH 108 7 20
1860221N28276 1860 20 NA NA NOT_NAMED 1860-08-11 21:00:00 TS 29.4093 -89.7078 main 0 0 P____________P AL011860 29.3140 -89.9606 HU 107 3 29.5999 -89.2023 MH 107 8 22
1860221N28276 1860 20 NA GM NOT_NAMED 1860-08-12 00:00:00 TS 29.7667 -89.5333 100 hurdat_atl main 0 0 O____________O hurdat_atl AL011860 29.7000 -89.8000 HU 100 3 29.9000 -89.0000 MH 105 9 32
1860221N28276 1860 20 NA GM NOT_NAMED 1860-08-12 03:00:00 TS 30.1613 -89.1660 main 11 0 P____________P AL011860 30.1169 -89.4053 HU 100 3 30.2500 -88.6876 MH 102 11 43
1860221N28276 1860 20 NA NA NOT_NAMED 1860-08-12 06:00:00 TS 30.5333 -88.7000 100 hurdat_atl main 0 0 O____________O hurdat_atl AL011860 30.5000 -88.9000 HU 100 3 30.6000 -88.3000 MH 100 10 49
1860221N28276 1860 20 NA NA NOT_NAMED 1860-08-12 09:00:00 TS 30.8423 -88.2565 main 0 0 P____________P AL011860 30.7871 -88.4720 HU 85 2 30.9528 -87.8255 MH 87 9 54
1860221N28276 1860 20 NA NA NOT_NAMED 1860-08-12 12:00:00 TS 31.0667 -87.8333 70 hurdat_atl main 0 0 O____________O hurdat_atl AL011860 31.0000 -88.0000 HU 70 1 31.2000 -87.5000 HU 75 8 62
1860221N28276 1860 20 NA NA NOT_NAMED 1860-08-12 15:00:00 TS 31.2016 -87.4732 main 0 0 P____________P AL011860 31.1800 -87.4225 HU 60 0 31.2449 -87.5747 HU 62 6 72
1860221N28276 1860 20 NA NA NOT_NAMED 1860-08-12 18:00:00 TS 31.2667 -87.1333 50 hurdat_atl main 0 0 O____________O hurdat_atl AL011860 31.3000 -86.8000 TS 50 0 31.2000 -87.8000 TS 50 6 79
1860221N28276 1860 20 NA NA NOT_NAMED 1860-08-12 21:00:00 TS 31.3124 -86.7765 main 0 0 P____________P AL011860 31.3649 -86.1847 TS 45 0 31.2074 -87.9600 TS 45 6 84
1860221N28276 1860 20 NA NA NOT_NAMED 1860-08-13 00:00:00 TS 31.3333 -86.4000 40 hurdat_atl main 0 0 O____________O hurdat_atl AL011860 31.4000 -85.6000 TS 40 0 31.2000 -88.0000 TS 40 6 87
1860221N28276 1860 20 NA NA NOT_NAMED 1860-08-13 03:00:00 TS 31.3462 -86.0532 main 0 0 P____________P AL011860 31.4421 -85.0848 TS 40 0 31.1545 -87.9901 TS 40 7 87
1860221N28276 1860 20 NA NA NOT_NAMED 1860-08-13 06:00:00 TS 31.3667 -85.5667 40 hurdat_atl main 0 0 O____________O hurdat_atl AL011860 31.5000 -84.6000 TS 40 0 31.1000 -87.5000 TS 40 11 87
1860221N28276 1860 20 NA NA NOT_NAMED 1860-08-13 09:00:00 TS 31.4108 -84.7705 main 0 0 P____________P AL011860 31.5998 -84.1001 TS 40 0 31.0327 -86.1113 TS 37 14 86
1860221N28276 1860 20 NA NA NOT_NAMED 1860-08-13 12:00:00 TS 31.4667 -83.9000 40 hurdat_atl main 0 0 O____________O hurdat_atl AL011860 31.7000 -83.6000 TS 40 0 31.0000 -84.5000 TS 35 13 86
1860221N28276 1860 20 NA NA NOT_NAMED 1860-08-13 15:00:00 TS 31.5125 -83.1980 main 0 0 P____________P AL011860 31.7573 -83.0998 TS 40 0 31.0228 -83.3944 TS 35 11 83
1860221N28276 1860 20 NA NA NOT_NAMED 1860-08-13 18:00:00 TS 31.6000 -82.5667 40 hurdat_atl main 0 0 O____________O hurdat_atl AL011860 31.8000 -82.6000 TS 40 0 31.2000 -82.5000 TS 35 11 75
1860221N28276 1860 20 NA NA NOT_NAMED 1860-08-13 21:00:00 TS 31.7879 -81.9524 main 0 0 P____________P AL011860 31.8498 -82.0999 TS 40 0 31.6642 -81.6572 TS 35 11 70
1860221N28276 1860 20 NA NA NOT_NAMED 1860-08-14 00:00:00 TS 31.9667 -81.3667 40 hurdat_atl main 0 0 O____________O hurdat_atl AL011860 31.9000 -81.6000 TS 40 0 32.1000 -80.9000 TS 35 10 77
1860221N28276 1860 20 NA NA NOT_NAMED 1860-08-14 03:00:00 TS 32.0194 -80.8093 main 9 9 P____________P AL011860 31.9573 -81.1001 TS 40 0 32.1435 -80.2276 TS 37 10 86
1860221N28276 1860 20 NA NA NOT_NAMED 1860-08-14 06:00:00 TS 32.0333 -80.2333 40 hurdat_atl main 50 50 O____________O hurdat_atl AL011860 32.0000 -80.6000 TS 40 0 32.1000 -79.5000 TS 40 10 87
1860221N28276 1860 20 NA NA NOT_NAMED 1860-08-14 09:00:00 TS 32.0808 -79.5817 main 67 67 P____________P AL011860 32.0073 -80.0999 TS 45 0 32.2277 -78.5454 TS 42 11 85
1860221N28276 1860 20 NA NA NOT_NAMED 1860-08-14 12:00:00 TS 32.1333 -78.9000 50 hurdat_atl main 110 110 O____________O hurdat_atl AL011860 32.0000 -79.6000 TS 50 0 32.4000 -77.5000 TS 45 11 87
1860221N28276 1860 20 NA NA NOT_NAMED 1860-08-14 15:00:00 TS 32.1456 -78.2246 main 150 150 P____________P AL011860 31.9998 -79.1000 TS 50 0 32.4373 -76.4739 TS 47 10 87
1860221N28276 1860 20 NA NA NOT_NAMED 1860-08-14 18:00:00 TS 32.1909 -77.7545 50 hurdat_atl main 171 171 O____________O hurdat_atl AL011860 32.0000 -78.6000 TS 50 0 32.7000 -75.5000 TS 50 7 80
1860221N28276 1860 20 NA NA NOT_NAMED 1860-08-14 21:00:00 TS 32.2720 -77.4049 main 186 186 P____________P AL011860 31.9773 -78.0996 TS 50 0 33.4507 -74.6262 TS 45 5 80
1860221N28276 1860 20 NA NA NOT_NAMED 1860-08-15 00:00:00 TS 32.2778 -77.1778 50 hurdat_atl main 193 193 O____________O hurdat_atl AL011860 32.0000 -77.6000 TS 50 0 34.5000 -73.8000 TS 40 3 118
1860221N28276 1860 20 NA NA NOT_NAMED 1860-08-15 03:00:00 TS 32.1348 -77.1003 main 217 211 P_____________ AL011860 32.1348 -77.1003 TS 50 0 TS 5 87
1860221N28276 1860 20 NA NA NOT_NAMED 1860-08-15 06:00:00 TS 32.3000 -76.6000 50 hurdat_atl main 220 220 O_____________ hurdat_atl AL011860 32.3000 -76.6000 TS 50 0 9 72
1860221N28276 1860 20 NA NA NOT_NAMED 1860-08-15 09:00:00 TS 32.4073 -76.0998 main 243 243 P_____________ AL011860 32.4073 -76.0998 TS 50 0 9 77
1860221N28276 1860 20 NA NA NOT_NAMED 1860-08-15 12:00:00 TS 32.5000 -75.6000 50 hurdat_atl main 259 259 O_____________ hurdat_atl AL011860 32.5000 -75.6000 TS 50 0 9 78
1860221N28276 1860 20 NA NA NOT_NAMED 1860-08-15 15:00:00 TS 32.5922 -75.1072 main 267 267 P_____________ AL011860 32.5922 -75.1072 TS 50 0 9 77
1860221N28276 1860 20 NA NA NOT_NAMED 1860-08-15 18:00:00 TS 32.7000 -74.6000 50 hurdat_atl main 283 283 O_____________ hurdat_atl AL011860 32.7000 -74.6000 TS 50 0 9 74
1860221N28276 1860 20 NA NA NOT_NAMED 1860-08-15 21:00:00 TS 32.8419 -74.0873 main 306 298 P_____________ AL011860 32.8419 -74.0873 TS 50 0 10 72
1860221N28276 1860 20 NA NA NOT_NAMED 1860-08-16 00:00:00 TS 33.0000 -73.5000 50 hurdat_atl main 333 333 O_____________ hurdat_atl AL011860 33.0000 -73.5000 TS 50 0 11 74
1860221N28276 1860 20 NA NA NOT_NAMED 1860-08-16 03:00:00 TS 33.1538 -72.7881 main 373 373 P_____________ AL011860 33.1538 -72.7881 TS 50 0 13 77
1860221N28276 1860 20 NA NA NOT_NAMED 1860-08-16 06:00:00 TS 33.3000 -72.0000 50 hurdat_atl main 424 O_____________ hurdat_atl AL011860 33.3000 -72.0000 TS 50 0 13 77

About IBTrACS Database

This database is a web-friendly format of International Best Track Archive for Climate Stewardship (IBTrACS), a global best track data archive curated by NOAA dating back to 1842.

Updated: 2021-12-03